createdAt,value
2018-10-02T00:00:28.042Z,12.30
2018-10-02T00:02:56.928Z,12.30
2018-10-02T00:05:25.713Z,12.20
2018-10-02T00:07:54.434Z,12.10
2018-10-02T00:10:23.163Z,12.20
2018-10-02T00:12:57.843Z,12.10
2018-10-02T00:15:26.563Z,12.20
2018-10-02T00:17:55.140Z,12.30
2018-10-02T00:20:23.838Z,12.30
2018-10-02T00:22:52.615Z,12.20
2018-10-02T00:25:21.210Z,12.10
2018-10-02T00:27:49.812Z,12.00
2018-10-02T00:30:18.415Z,11.90
2018-10-02T00:32:46.995Z,11.80
2018-10-02T00:35:15.582Z,11.70
2018-10-02T00:37:44.195Z,11.70
2018-10-02T00:40:12.803Z,11.70
2018-10-02T00:42:41.422Z,11.80
2018-10-02T00:45:10.052Z,11.90
2018-10-02T00:47:38.727Z,12.10
2018-10-02T00:50:07.450Z,12.20
2018-10-02T00:52:36.131Z,12.40
2018-10-02T00:55:04.904Z,12.50
2018-10-02T00:57:33.513Z,12.60
2018-10-02T01:00:02.164Z,12.70
2018-10-02T01:02:30.821Z,12.70
2018-10-02T01:04:59.415Z,12.90
2018-10-02T01:07:29.123Z,13.00
2018-10-02T01:09:57.698Z,12.90
2018-10-02T01:12:26.615Z,12.60
2018-10-02T01:14:55.319Z,12.50
2018-10-02T01:17:24.107Z,12.20
2018-10-02T01:19:52.778Z,12.10
2018-10-02T01:22:21.515Z,11.90
2018-10-02T01:24:50.256Z,11.80
2018-10-02T01:27:18.930Z,11.60
2018-10-02T01:29:47.607Z,11.50
2018-10-02T01:32:16.306Z,11.40
2018-10-02T01:34:44.995Z,11.30
2018-10-02T01:37:14.559Z,11.30
2018-10-02T01:39:43.244Z,11.30
2018-10-02T01:42:11.847Z,11.30
2018-10-02T01:44:40.432Z,11.20
2018-10-02T01:47:08.956Z,11.10
2018-10-02T01:49:37.897Z,11.10
2018-10-02T01:52:06.472Z,11.10
2018-10-02T01:54:35.067Z,11.10
2018-10-02T01:57:03.715Z,11.20
2018-10-02T01:59:32.305Z,11.30
2018-10-02T02:02:00.927Z,11.40
2018-10-02T02:04:29.621Z,11.60
2018-10-02T02:06:58.295Z,11.70
2018-10-02T02:09:26.995Z,11.90
2018-10-02T02:11:55.669Z,11.90
2018-10-02T02:14:24.352Z,11.80
2018-10-02T02:16:53.020Z,12.20
2018-10-02T02:19:21.675Z,12.20
2018-10-02T02:21:50.369Z,12.10
2018-10-02T02:24:18.925Z,11.90
2018-10-02T02:26:47.762Z,12.00
2018-10-02T02:29:16.302Z,12.10
2018-10-02T02:31:44.870Z,12.00
2018-10-02T02:34:13.545Z,11.70
2018-10-02T02:36:42.217Z,11.40
2018-10-02T02:39:10.892Z,11.30
2018-10-02T02:41:39.611Z,11.20
2018-10-02T02:44:08.245Z,11.10
2018-10-02T02:46:36.937Z,11.00
2018-10-02T02:49:11.205Z,10.90
2018-10-02T02:51:39.956Z,10.80
2018-10-02T02:54:08.676Z,11.00
2018-10-02T02:56:37.360Z,11.20
2018-10-02T02:59:06.055Z,11.10
2018-10-02T03:01:34.792Z,11.40
2018-10-02T03:04:03.417Z,11.30
2018-10-02T03:06:31.957Z,11.10
2018-10-02T03:09:00.555Z,11.10
2018-10-02T03:11:29.172Z,11.10
2018-10-02T03:13:57.829Z,11.10
2018-10-02T03:16:26.525Z,10.90
2018-10-02T03:18:55.263Z,11.00
2018-10-02T03:21:23.933Z,10.80
2018-10-02T03:23:52.553Z,11.00
2018-10-02T03:26:21.127Z,11.10
2018-10-02T03:28:49.688Z,11.00
2018-10-02T03:31:18.228Z,10.80
2018-10-02T03:33:46.840Z,10.80
2018-10-02T03:36:15.554Z,10.60
2018-10-02T03:38:44.199Z,10.50
2018-10-02T03:41:12.869Z,10.60
2018-10-02T03:43:41.567Z,10.40
2018-10-02T03:46:10.283Z,10.30
2018-10-02T03:48:39.013Z,10.20
2018-10-02T03:51:07.733Z,10.20
2018-10-02T03:53:36.335Z,10.10
2018-10-02T03:56:05.043Z,10.10
2018-10-02T03:58:33.582Z,10.10
2018-10-02T04:01:02.144Z,10.00
2018-10-02T04:03:30.839Z,10.00
2018-10-02T04:05:59.500Z,10.60
2018-10-02T04:08:28.202Z,10.90
2018-10-02T04:10:56.933Z,11.20
2018-10-02T04:13:25.497Z,11.30
2018-10-02T04:15:54.083Z,11.40
2018-10-02T04:18:22.667Z,11.40
2018-10-02T04:20:51.343Z,11.40
2018-10-02T04:23:20.008Z,11.40
2018-10-02T04:25:48.692Z,11.30
2018-10-02T04:28:17.501Z,11.30
2018-10-02T04:30:46.048Z,11.00
2018-10-02T04:33:14.620Z,10.70
2018-10-02T04:35:43.238Z,10.50
2018-10-02T04:38:11.832Z,10.40
2018-10-02T04:40:40.640Z,10.30
2018-10-02T04:43:09.328Z,10.30
2018-10-02T04:45:38.050Z,10.20
2018-10-02T04:48:06.742Z,10.20
2018-10-02T04:50:35.378Z,10.10
2018-10-02T04:53:04.055Z,10.10
2018-10-02T04:55:38.224Z,10.10
2018-10-02T04:58:06.790Z,10.10
2018-10-02T05:00:35.396Z,10.20
2018-10-02T05:03:03.983Z,10.10
2018-10-02T05:05:32.625Z,10.10
2018-10-02T05:08:01.236Z,10.20
2018-10-02T05:10:29.858Z,10.30
2018-10-02T05:12:58.573Z,10.30
2018-10-02T05:15:27.258Z,10.40
2018-10-02T05:17:55.949Z,10.40
2018-10-02T05:20:24.676Z,10.50
2018-10-02T05:22:53.370Z,10.50
2018-10-02T05:25:22.078Z,10.40
2018-10-02T05:27:50.812Z,10.40
2018-10-02T05:30:19.487Z,10.50
2018-10-02T05:32:48.183Z,10.60
2018-10-02T05:35:17.672Z,10.70
2018-10-02T05:37:46.957Z,11.10
2018-10-02T05:40:16.126Z,11.60
2018-10-02T05:42:44.853Z,11.80
2018-10-02T05:45:13.425Z,12.00
2018-10-02T05:47:42.683Z,12.10
2018-10-02T05:50:11.313Z,12.20
2018-10-02T05:52:39.928Z,12.20
2018-10-02T05:55:08.532Z,12.20
2018-10-02T05:57:38.038Z,12.30
2018-10-02T06:00:07.098Z,12.40
2018-10-02T06:02:35.853Z,12.40
2018-10-02T06:05:04.771Z,12.30
2018-10-02T06:07:33.508Z,12.40
2018-10-02T06:10:02.386Z,12.40
2018-10-02T06:12:30.960Z,12.40
2018-10-02T06:14:59.558Z,12.30
2018-10-02T06:17:28.104Z,12.20
2018-10-02T06:19:56.781Z,12.30
2018-10-02T06:22:25.447Z,12.30
2018-10-02T06:24:54.502Z,12.40
2018-10-02T06:27:23.306Z,12.30
2018-10-02T06:29:51.886Z,12.20
2018-10-02T06:32:20.443Z,12.20
2018-10-02T06:34:49.006Z,12.30
2018-10-02T06:37:17.535Z,12.50
2018-10-02T06:39:46.131Z,12.50
2018-10-02T06:42:14.711Z,12.80
2018-10-02T06:44:43.330Z,13.00
2018-10-02T06:47:11.841Z,13.00
2018-10-02T06:49:40.356Z,13.10
2018-10-02T06:52:09.127Z,13.00
2018-10-02T06:54:37.517Z,12.90
2018-10-02T06:57:06.562Z,12.90
2018-10-02T06:59:35.160Z,12.90
2018-10-02T07:02:11.121Z,12.90
2018-10-02T07:04:39.771Z,12.90
2018-10-02T07:07:08.357Z,12.90
2018-10-02T07:09:37.284Z,13.00
2018-10-02T07:12:06.103Z,12.80
2018-10-02T07:14:34.919Z,12.80
2018-10-02T07:17:03.616Z,12.80
2018-10-02T07:19:32.286Z,12.70
2018-10-02T07:22:00.857Z,12.60
2018-10-02T07:24:29.408Z,12.70
2018-10-02T07:26:58.126Z,12.60
2018-10-02T07:29:26.768Z,12.60
2018-10-02T07:31:55.471Z,12.60
2018-10-02T07:34:24.314Z,12.70
2018-10-02T07:36:53.124Z,12.80
2018-10-02T07:39:21.700Z,12.70
2018-10-02T07:41:50.386Z,12.70
2018-10-02T07:44:19.160Z,12.70
2018-10-02T07:46:47.856Z,12.60
2018-10-02T07:49:16.614Z,12.80
2018-10-02T07:51:45.343Z,12.90
2018-10-02T07:54:13.996Z,12.90
2018-10-02T07:56:43.038Z,12.90
2018-10-02T07:59:17.164Z,12.90
2018-10-02T08:01:45.779Z,12.90
2018-10-02T08:04:14.393Z,13.10
2018-10-02T08:06:42.995Z,13.40
2018-10-02T08:09:12.024Z,13.80
2018-10-02T08:14:25.636Z,14.60
2018-10-02T08:16:54.831Z,15.30
2018-10-02T08:19:24.440Z,16.40
2018-10-02T08:21:53.904Z,16.70
2018-10-02T08:24:23.380Z,17.00
2018-10-02T08:26:52.746Z,17.30
2018-10-02T08:29:22.132Z,17.50
2018-10-02T08:31:52.336Z,17.60
2018-10-02T08:34:27.042Z,17.60
2018-10-02T08:36:56.131Z,17.90
2018-10-02T08:39:25.596Z,18.10
2018-10-02T08:41:54.949Z,18.40
2018-10-02T08:44:31.675Z,18.40
2018-10-02T08:47:04.276Z,18.80
2018-10-02T08:49:43.886Z,19.00
2018-10-02T08:52:13.732Z,19.00
2018-10-02T08:54:49.640Z,19.10
2018-10-02T08:57:27.444Z,19.20
2018-10-02T08:59:56.826Z,19.20
2018-10-02T09:02:25.943Z,19.70
2018-10-02T09:04:54.981Z,20.30
2018-10-02T09:07:24.206Z,20.30
2018-10-02T09:09:53.428Z,20.20
2018-10-02T09:12:22.591Z,20.50
2018-10-02T09:14:51.651Z,20.70
2018-10-02T09:17:20.624Z,20.80
2018-10-02T09:19:49.747Z,21.00
2018-10-02T09:22:18.681Z,21.20
2018-10-02T09:24:47.603Z,21.30
2018-10-02T09:27:16.564Z,21.50
2018-10-02T09:29:51.090Z,21.60
2018-10-02T09:33:23.395Z,21.70
2018-10-02T09:35:57.820Z,22.10
2018-10-02T09:38:32.227Z,22.30
2018-10-02T09:41:08.389Z,22.10
2018-10-02T09:43:41.171Z,22.10
2018-10-02T09:46:10.106Z,22.40
2018-10-02T09:48:39.047Z,22.10
2018-10-02T09:51:08.254Z,21.80
2018-10-02T09:53:37.101Z,21.60
2018-10-02T09:56:05.992Z,21.10
2018-10-02T09:58:35.007Z,21.80
2018-10-02T10:01:05.051Z,22.10
2018-10-02T10:03:34.051Z,23.10
2018-10-02T10:06:02.713Z,23.60
2018-10-02T10:08:31.362Z,24.30
2018-10-02T10:10:59.981Z,24.10
2018-10-02T10:13:28.630Z,24.60
2018-10-02T10:15:57.336Z,24.30
2018-10-02T10:18:26.031Z,24.20
2018-10-02T10:20:54.783Z,24.10
2018-10-02T10:23:23.574Z,24.30
2018-10-02T10:25:52.301Z,24.80
2018-10-02T10:28:21.042Z,24.90
2018-10-02T10:30:49.724Z,24.60
2018-10-02T10:33:18.427Z,24.10
2018-10-02T10:35:47.110Z,24.50
2018-10-02T10:38:21.435Z,24.60
2018-10-02T10:40:50.094Z,24.50
2018-10-02T10:43:18.901Z,24.10
2018-10-02T10:45:47.650Z,24.40
2018-10-02T10:48:16.416Z,24.50
2018-10-02T10:50:45.213Z,23.60
2018-10-02T10:53:13.963Z,22.80
2018-10-02T10:55:42.703Z,22.50
2018-10-02T10:58:12.030Z,22.20
2018-10-02T11:00:41.173Z,22.30
2018-10-02T11:03:10.022Z,21.90
2018-10-02T11:05:39.617Z,21.40
2018-10-02T11:08:09.163Z,20.80
2018-10-02T11:10:37.888Z,20.60
2018-10-02T11:13:06.826Z,21.40
2018-10-02T11:15:35.516Z,21.40
2018-10-02T11:18:04.266Z,20.90
2018-10-02T11:20:35.243Z,20.60
2018-10-02T11:23:04.018Z,20.80
2018-10-02T11:25:32.901Z,21.20
2018-10-02T11:28:01.769Z,21.70
2018-10-02T11:30:30.679Z,22.60
2018-10-02T11:32:59.683Z,22.90
2018-10-02T11:35:28.988Z,22.20
2018-10-02T11:37:57.656Z,21.30
2018-10-02T11:40:26.464Z,20.80
2018-10-02T11:42:55.942Z,20.30
2018-10-02T11:45:24.816Z,19.80
2018-10-02T11:47:53.611Z,19.50
2018-10-02T11:50:22.876Z,19.50
2018-10-02T11:52:53.779Z,19.30
2018-10-02T11:55:22.604Z,20.30
2018-10-02T11:57:51.288Z,21.30
2018-10-02T12:00:20.756Z,21.80
2018-10-02T12:02:49.555Z,21.70
2018-10-02T12:05:21.364Z,21.20
2018-10-02T12:07:50.477Z,20.60
2018-10-02T12:10:19.296Z,19.90
2018-10-02T12:12:48.154Z,19.70
2018-10-02T12:15:18.631Z,19.60
2018-10-02T12:17:48.496Z,19.50
2018-10-02T12:20:18.193Z,19.60
2018-10-02T12:22:56.076Z,19.50
2018-10-02T12:25:28.081Z,19.70
2018-10-02T12:28:01.044Z,20.20
2018-10-02T12:30:35.730Z,20.30
2018-10-02T12:33:05.332Z,20.20
2018-10-02T12:35:34.753Z,20.00
2018-10-02T12:38:04.120Z,19.80
2018-10-02T12:40:33.723Z,19.80
2018-10-02T12:43:09.052Z,19.70
2018-10-02T12:45:37.717Z,19.50
2018-10-02T12:48:06.606Z,19.80
2018-10-02T12:50:35.203Z,20.70
2018-10-02T12:53:09.571Z,21.60
2018-10-02T12:55:38.907Z,22.20
2018-10-02T12:58:07.621Z,22.60
2018-10-02T13:00:36.996Z,23.30
2018-10-02T13:03:05.634Z,23.30
2018-10-02T13:05:34.275Z,23.30
2018-10-02T13:08:03.013Z,23.40
2018-10-02T13:10:31.681Z,23.60
2018-10-02T13:13:00.472Z,23.90
2018-10-02T13:15:29.178Z,23.50
2018-10-02T13:18:04.189Z,22.90
2018-10-02T13:20:33.936Z,22.80
2018-10-02T13:23:02.658Z,22.60
2018-10-02T13:25:31.355Z,22.90
2018-10-02T13:28:00.253Z,22.30
2018-10-02T13:30:28.873Z,21.90
2018-10-02T13:32:57.530Z,21.70
2018-10-02T13:35:26.248Z,21.80
2018-10-02T13:37:55.286Z,21.10
2018-10-02T13:40:23.994Z,21.00
2018-10-02T13:42:52.640Z,21.30
2018-10-02T13:45:21.256Z,21.20
2018-10-02T13:47:55.289Z,21.30
2018-10-02T13:50:24.103Z,21.40
2018-10-02T13:52:52.846Z,22.10
2018-10-02T13:55:21.536Z,22.50
2018-10-02T13:57:50.203Z,22.90
2018-10-02T14:00:18.872Z,23.40
2018-10-02T14:02:47.971Z,23.50
2018-10-02T14:05:17.134Z,23.30
2018-10-02T14:07:45.796Z,23.10
2018-10-02T14:10:14.513Z,22.90
2018-10-02T14:12:43.683Z,23.00
2018-10-02T14:15:12.519Z,23.20
2018-10-02T14:17:41.268Z,23.10
2018-10-02T14:20:10.036Z,22.90
2018-10-02T14:22:39.201Z,22.80
2018-10-02T14:25:07.933Z,22.70
2018-10-02T14:27:36.606Z,23.00
2018-10-02T14:30:05.611Z,23.10
2018-10-02T14:32:34.180Z,23.10
2018-10-02T14:35:02.711Z,23.20
2018-10-02T14:37:31.296Z,22.90
2018-10-02T14:40:00.384Z,22.40
2018-10-02T14:42:29.171Z,22.10
2018-10-02T14:44:57.828Z,22.30
2018-10-02T14:47:26.559Z,22.60
2018-10-02T14:49:55.236Z,22.30
2018-10-02T14:52:23.932Z,22.20
2018-10-02T14:54:52.676Z,22.10
2018-10-02T14:57:22.271Z,21.90
2018-10-02T14:59:50.963Z,21.90
2018-10-02T15:02:20.575Z,21.60
2018-10-02T15:04:49.684Z,21.60
2018-10-02T15:07:18.986Z,21.50
2018-10-02T15:09:47.516Z,21.10
2018-10-02T15:12:16.949Z,20.60
2018-10-02T15:14:45.616Z,20.70
2018-10-02T15:17:14.226Z,20.50
2018-10-02T15:19:43.072Z,20.00
2018-10-02T15:22:11.648Z,20.00
2018-10-02T15:24:40.171Z,20.20
2018-10-02T15:27:08.716Z,20.00
2018-10-02T15:29:42.976Z,19.70
2018-10-02T15:32:17.141Z,19.10
2018-10-02T15:34:51.273Z,18.60
2018-10-02T15:37:19.819Z,18.40
2018-10-02T15:39:48.384Z,18.10
2018-10-02T15:42:17.198Z,17.80
2018-10-02T15:44:46.551Z,17.60
2018-10-02T15:47:15.188Z,17.50
2018-10-02T15:49:43.842Z,17.40
2018-10-02T15:52:12.451Z,17.40
2018-10-02T15:54:40.985Z,17.30
2018-10-02T15:57:09.891Z,17.20
2018-10-02T15:59:38.415Z,17.10
2018-10-02T16:02:12.509Z,17.00
2018-10-02T16:04:42.069Z,16.80
2018-10-02T16:07:10.608Z,16.70
2018-10-02T16:09:39.179Z,16.70
2018-10-02T16:12:07.840Z,16.60
2018-10-02T16:14:37.304Z,16.50
2018-10-02T16:17:06.336Z,16.40
2018-10-02T16:19:35.831Z,16.30
2018-10-02T16:22:04.768Z,16.30
2018-10-02T16:24:33.456Z,16.30
2018-10-02T16:27:02.149Z,16.20
2018-10-02T16:29:30.829Z,16.10
2018-10-02T16:31:59.463Z,16.00
2018-10-02T16:34:28.112Z,16.00
2018-10-02T16:37:02.271Z,16.00
2018-10-02T16:39:30.876Z,16.00
2018-10-02T16:41:59.502Z,15.90
2018-10-02T16:44:33.508Z,15.80
2018-10-02T16:47:02.245Z,15.80
2018-10-02T16:49:30.791Z,15.70
2018-10-02T16:51:59.456Z,15.70
2018-10-02T16:54:28.088Z,15.70
2018-10-02T16:56:56.817Z,15.60
2018-10-02T16:59:25.823Z,15.60
2018-10-02T17:01:59.907Z,15.60
2018-10-02T17:04:28.555Z,15.60
2018-10-02T17:07:03.267Z,15.50
2018-10-02T17:09:31.828Z,15.50
2018-10-02T17:12:00.571Z,15.50
2018-10-02T17:14:34.757Z,15.50
2018-10-02T17:17:05.074Z,15.40
2018-10-02T17:19:33.681Z,15.40
2018-10-02T17:22:02.428Z,15.30
2018-10-02T17:24:31.117Z,15.20
2018-10-02T17:26:59.760Z,15.10
2018-10-02T17:29:28.523Z,15.10
2018-10-02T17:31:57.265Z,15.00
2018-10-02T17:34:25.886Z,15.00
2018-10-02T17:36:55.350Z,14.90
2018-10-02T17:39:24.421Z,14.80
2018-10-02T17:41:53.034Z,14.80
2018-10-02T17:44:21.605Z,14.70
2018-10-02T17:46:50.148Z,14.60
2018-10-02T17:49:24.180Z,14.50
2018-10-02T17:51:58.649Z,14.60
2018-10-02T17:54:29.201Z,14.50
2018-10-02T17:56:59.050Z,14.50
2018-10-02T17:59:27.691Z,14.50
2018-10-02T18:01:56.545Z,14.40
2018-10-02T18:04:31.142Z,14.30
2018-10-02T18:07:05.633Z,14.30
2018-10-02T18:09:34.195Z,14.30
2018-10-02T18:12:03.013Z,14.20
2018-10-02T18:14:31.703Z,14.20
2018-10-02T18:17:01.093Z,14.10
2018-10-02T18:19:29.834Z,14.20
2018-10-02T18:21:58.498Z,14.20
2018-10-02T18:24:27.276Z,14.10
2018-10-02T18:26:55.976Z,14.10
2018-10-02T18:29:24.668Z,14.00
2018-10-02T18:31:53.670Z,14.00
2018-10-02T18:34:27.836Z,13.90
2018-10-02T18:36:56.453Z,13.90
2018-10-02T18:39:30.588Z,13.90
2018-10-02T18:41:59.352Z,13.80
2018-10-02T18:44:28.083Z,13.80
2018-10-02T18:46:57.134Z,13.70
2018-10-02T18:49:25.901Z,13.70
2018-10-02T18:51:54.568Z,13.70
2018-10-02T18:54:23.206Z,13.70
2018-10-02T18:56:52.808Z,13.60
2018-10-02T18:59:22.382Z,13.60
2018-10-02T19:01:51.344Z,13.60
2018-10-02T19:04:19.973Z,13.60
2018-10-02T19:06:48.576Z,13.60
2018-10-02T19:09:18.039Z,13.50
2018-10-02T19:11:57.571Z,13.50
2018-10-02T19:14:26.269Z,13.50
2018-10-02T19:16:55.481Z,13.40
2018-10-02T19:19:29.927Z,13.40
2018-10-02T19:22:00.264Z,13.50
2018-10-02T19:24:29.141Z,13.40
2018-10-02T19:26:58.911Z,13.50
2018-10-02T19:29:28.588Z,13.40
2018-10-02T19:32:02.911Z,13.40
2018-10-02T19:34:32.171Z,13.40
2018-10-02T19:37:11.898Z,13.40
2018-10-02T19:39:51.753Z,13.40
2018-10-02T19:42:20.538Z,13.30
2018-10-02T19:44:49.541Z,13.30
2018-10-02T19:47:18.276Z,13.30
2018-10-02T19:49:47.561Z,13.20
2018-10-02T19:52:17.843Z,13.20
2018-10-02T19:54:47.519Z,13.10
2018-10-02T19:57:18.135Z,13.10
2018-10-02T19:59:46.830Z,13.10
2018-10-02T20:02:18.986Z,13.10
2018-10-02T20:04:47.759Z,13.00
2018-10-02T20:07:21.905Z,13.00
2018-10-02T20:09:50.683Z,13.00
2018-10-02T20:12:20.044Z,13.10
2018-10-02T20:14:51.449Z,13.00
2018-10-02T20:17:20.348Z,13.10
2018-10-02T20:19:49.196Z,13.00
2018-10-02T20:22:18.379Z,13.00
2018-10-02T20:24:48.578Z,13.00
2018-10-02T20:27:17.453Z,13.00
2018-10-02T20:29:46.241Z,13.00
2018-10-02T20:32:15.405Z,12.90
2018-10-02T20:34:45.079Z,12.90
2018-10-02T20:37:13.754Z,12.90
2018-10-02T20:39:42.943Z,12.90
2018-10-02T20:42:12.171Z,12.90
2018-10-02T20:44:40.931Z,12.90
2018-10-02T20:47:09.579Z,12.80
2018-10-02T20:49:38.937Z,12.80
2018-10-02T20:52:13.722Z,12.80
2018-10-02T20:54:42.509Z,12.70
2018-10-02T20:57:11.940Z,12.80
2018-10-02T20:59:40.981Z,12.80
2018-10-02T21:02:09.561Z,12.80
2018-10-02T21:04:38.295Z,12.80
2018-10-02T21:07:07.817Z,12.80
2018-10-02T21:09:36.344Z,12.80
2018-10-02T21:12:05.073Z,12.80
2018-10-02T21:14:43.061Z,12.70
2018-10-02T21:17:11.749Z,12.70
2018-10-02T21:19:40.337Z,12.70
2018-10-02T21:22:09.061Z,12.60
2018-10-02T21:24:38.393Z,12.70
2018-10-02T21:27:07.103Z,12.60
2018-10-02T21:29:35.891Z,12.60
2018-10-02T21:32:04.602Z,12.60
2018-10-02T21:34:33.427Z,12.60
2018-10-02T21:37:02.116Z,12.60
2018-10-02T21:39:30.962Z,12.60
2018-10-02T21:41:59.581Z,12.60
2018-10-02T21:44:28.161Z,12.50
2018-10-02T21:46:56.770Z,12.50
2018-10-02T21:49:25.419Z,12.50
2018-10-02T21:51:54.541Z,12.50
2018-10-02T21:54:28.669Z,12.50
2018-10-02T21:56:57.373Z,12.60
2018-10-02T21:59:26.786Z,12.60
2018-10-02T22:01:55.591Z,12.50
2018-10-02T22:04:24.301Z,12.50
2018-10-02T22:06:52.981Z,12.40
2018-10-02T22:09:21.760Z,12.30
2018-10-02T22:11:50.410Z,12.30
2018-10-02T22:14:19.046Z,12.20
2018-10-02T22:16:47.693Z,12.20
2018-10-02T22:19:16.319Z,12.20
2018-10-02T22:21:44.976Z,12.30
2018-10-02T22:24:13.591Z,12.20
2018-10-02T22:26:42.261Z,12.20
2018-10-02T22:29:11.061Z,12.10
2018-10-02T22:31:40.099Z,12.10
2018-10-02T22:34:08.954Z,12.10
2018-10-02T22:36:37.752Z,12.10
2018-10-02T22:39:08.653Z,12.10
2018-10-02T22:41:37.279Z,12.10
2018-10-02T22:44:06.113Z,12.00
2018-10-02T22:46:34.729Z,12.00
2018-10-02T22:49:04.114Z,12.00
2018-10-02T22:51:32.816Z,12.00
2018-10-02T22:54:01.514Z,11.90
2018-10-02T22:56:31.136Z,11.70
2018-10-02T22:58:59.956Z,11.60
2018-10-02T23:01:28.751Z,11.40
2018-10-02T23:03:57.529Z,11.20
2018-10-02T23:06:26.463Z,11.10
2018-10-02T23:08:55.151Z,11.10
2018-10-02T23:11:23.757Z,11.10
2018-10-02T23:13:52.866Z,11.10
2018-10-02T23:16:21.491Z,11.20
2018-10-02T23:18:50.074Z,11.30
2018-10-02T23:21:19.103Z,11.40
2018-10-02T23:23:47.808Z,11.40
2018-10-02T23:26:17.356Z,11.40
2018-10-02T23:28:46.054Z,11.40
2018-10-02T23:31:14.748Z,11.40
2018-10-02T23:33:43.526Z,11.30
2018-10-02T23:36:12.313Z,11.30
2018-10-02T23:38:40.985Z,11.20
2018-10-02T23:41:09.695Z,11.20
2018-10-02T23:43:38.380Z,11.20
2018-10-02T23:46:07.021Z,11.20
2018-10-02T23:48:35.618Z,11.20
2018-10-02T23:51:04.393Z,11.10
2018-10-02T23:53:33.241Z,11.10
2018-10-02T23:56:01.843Z,11.10
2018-10-02T23:58:30.588Z,11.00
